sensor_id;sensor_type;location;lat;lon;timestamp;temperature;humidity
20856;DHT22;63058;49.424;8.420;2023-03-01T00:02:03;4.50;53.00
20856;DHT22;63058;49.424;8.420;2023-03-01T00:04:30;4.50;52.90
20856;DHT22;63058;49.424;8.420;2023-03-01T00:06:56;4.50;52.70
20856;DHT22;63058;49.424;8.420;2023-03-01T00:09:24;4.50;52.60
20856;DHT22;63058;49.424;8.420;2023-03-01T00:11:50;4.50;52.60
20856;DHT22;63058;49.424;8.420;2023-03-01T00:14:15;4.50;52.60
20856;DHT22;63058;49.424;8.420;2023-03-01T00:16:45;4.40;52.60
20856;DHT22;63058;49.424;8.420;2023-03-01T00:19:16;4.40;52.80
20856;DHT22;63058;49.424;8.420;2023-03-01T00:21:42;4.40;52.90
20856;DHT22;63058;49.424;8.420;2023-03-01T00:24:09;4.30;52.80
20856;DHT22;63058;49.424;8.420;2023-03-01T00:26:35;4.30;52.80
20856;DHT22;63058;49.424;8.420;2023-03-01T00:29:00;4.30;52.90
20856;DHT22;63058;49.424;8.420;2023-03-01T00:31:31;4.30;52.90
20856;DHT22;63058;49.424;8.420;2023-03-01T00:34:00;4.20;53.20
20856;DHT22;63058;49.424;8.420;2023-03-01T00:36:29;4.20;53.10
20856;DHT22;63058;49.424;8.420;2023-03-01T00:38:55;4.20;53.20
20856;DHT22;63058;49.424;8.420;2023-03-01T00:41:22;4.20;53.10
20856;DHT22;63058;49.424;8.420;2023-03-01T00:43:49;4.20;53.30
20856;DHT22;63058;49.424;8.420;2023-03-01T00:46:17;4.20;53.30
20856;DHT22;63058;49.424;8.420;2023-03-01T00:48:43;4.20;53.40
20856;DHT22;63058;49.424;8.420;2023-03-01T00:51:15;4.20;53.60
20856;DHT22;63058;49.424;8.420;2023-03-01T00:53:42;4.20;53.50
20856;DHT22;63058;49.424;8.420;2023-03-01T00:56:09;4.20;53.40
20856;DHT22;63058;49.424;8.420;2023-03-01T00:58:35;4.20;53.50
20856;DHT22;63058;49.424;8.420;2023-03-01T01:01:07;4.20;53.50
20856;DHT22;63058;49.424;8.420;2023-03-01T01:03:43;4.20;53.70
20856;DHT22;63058;49.424;8.420;2023-03-01T01:06:26;4.20;53.60
20856;DHT22;63058;49.424;8.420;2023-03-01T01:08:53;4.10;53.90
20856;DHT22;63058;49.424;8.420;2023-03-01T01:11:20;4.10;53.80
20856;DHT22;63058;49.424;8.420;2023-03-01T01:13:46;4.00;53.80
20856;DHT22;63058;49.424;8.420;2023-03-01T01:16:13;4.00;54.00
20856;DHT22;63058;49.424;8.420;2023-03-01T01:18:39;4.00;54.00
20856;DHT22;63058;49.424;8.420;2023-03-01T01:21:15;3.90;54.00
20856;DHT22;63058;49.424;8.420;2023-03-01T01:23:41;3.90;54.40
20856;DHT22;63058;49.424;8.420;2023-03-01T01:26:17;3.90;54.10
20856;DHT22;63058;49.424;8.420;2023-03-01T01:28:43;3.80;54.30
20856;DHT22;63058;49.424;8.420;2023-03-01T01:31:08;3.80;54.30
20856;DHT22;63058;49.424;8.420;2023-03-01T01:33:34;3.80;54.30
20856;DHT22;63058;49.424;8.420;2023-03-01T01:36:00;3.90;54.40
20856;DHT22;63058;49.424;8.420;2023-03-01T01:38:26;3.90;54.30
20856;DHT22;63058;49.424;8.420;2023-03-01T01:40:52;3.90;54.40
20856;DHT22;63058;49.424;8.420;2023-03-01T01:46:16;3.90;54.20
20856;DHT22;63058;49.424;8.420;2023-03-01T01:48:46;3.90;54.10
20856;DHT22;63058;49.424;8.420;2023-03-01T01:51:18;3.80;54.30
20856;DHT22;63058;49.424;8.420;2023-03-01T01:53:47;3.80;54.60
20856;DHT22;63058;49.424;8.420;2023-03-01T01:56:15;3.70;54.20
20856;DHT22;63058;49.424;8.420;2023-03-01T01:58:43;3.60;54.30
20856;DHT22;63058;49.424;8.420;2023-03-01T02:01:10;3.60;54.50
20856;DHT22;63058;49.424;8.420;2023-03-01T02:03:38;3.50;54.60
20856;DHT22;63058;49.424;8.420;2023-03-01T02:06:29;3.40;54.80
20856;DHT22;63058;49.424;8.420;2023-03-01T02:08:59;3.30;55.50
20856;DHT22;63058;49.424;8.420;2023-03-01T02:11:26;3.20;54.90
20856;DHT22;63058;49.424;8.420;2023-03-01T02:13:53;3.20;55.00
20856;DHT22;63058;49.424;8.420;2023-03-01T02:16:20;3.10;55.00
20856;DHT22;63058;49.424;8.420;2023-03-01T02:18:46;3.00;55.20
20856;DHT22;63058;49.424;8.420;2023-03-01T02:24:31;2.90;56.20
20856;DHT22;63058;49.424;8.420;2023-03-01T02:26:58;2.90;55.30
20856;DHT22;63058;49.424;8.420;2023-03-01T02:29:24;2.90;55.40
20856;DHT22;63058;49.424;8.420;2023-03-01T02:31:51;2.90;55.50
20856;DHT22;63058;49.424;8.420;2023-03-01T02:34:20;2.80;55.30
20856;DHT22;63058;49.424;8.420;2023-03-01T02:37:03;2.80;55.50
20856;DHT22;63058;49.424;8.420;2023-03-01T02:39:34;2.70;56.00
20856;DHT22;63058;49.424;8.420;2023-03-01T02:42:02;2.60;55.80
20856;DHT22;63058;49.424;8.420;2023-03-01T02:44:29;2.60;55.90
20856;DHT22;63058;49.424;8.420;2023-03-01T02:46:56;2.60;56.00
20856;DHT22;63058;49.424;8.420;2023-03-01T02:49:28;2.50;56.00
20856;DHT22;63058;49.424;8.420;2023-03-01T02:57:12;2.40;56.40
20856;DHT22;63058;49.424;8.420;2023-03-01T02:59:39;2.40;56.40
20856;DHT22;63058;49.424;8.420;2023-03-01T03:02:06;2.40;56.40
20856;DHT22;63058;49.424;8.420;2023-03-01T03:04:32;2.30;56.30
20856;DHT22;63058;49.424;8.420;2023-03-01T03:06:58;2.30;56.40
20856;DHT22;63058;49.424;8.420;2023-03-01T03:09:23;2.30;56.70
20856;DHT22;63058;49.424;8.420;2023-03-01T03:11:49;2.30;56.80
20856;DHT22;63058;49.424;8.420;2023-03-01T03:14:16;2.20;57.00
20856;DHT22;63058;49.424;8.420;2023-03-01T03:16:47;2.30;57.20
20856;DHT22;63058;49.424;8.420;2023-03-01T03:19:13;2.30;57.30
20856;DHT22;63058;49.424;8.420;2023-03-01T03:21:39;2.30;57.00
20856;DHT22;63058;49.424;8.420;2023-03-01T03:24:05;2.40;57.30
20856;DHT22;63058;49.424;8.420;2023-03-01T03:26:31;2.40;57.30
20856;DHT22;63058;49.424;8.420;2023-03-01T03:28:56;2.40;57.30
20856;DHT22;63058;49.424;8.420;2023-03-01T03:31:22;2.50;57.10
20856;DHT22;63058;49.424;8.420;2023-03-01T03:33:48;2.50;56.70
20856;DHT22;63058;49.424;8.420;2023-03-01T03:36:19;2.40;56.80
20856;DHT22;63058;49.424;8.420;2023-03-01T03:38:45;2.40;57.20
20856;DHT22;63058;49.424;8.420;2023-03-01T03:41:12;2.40;57.10
20856;DHT22;63058;49.424;8.420;2023-03-01T03:43:39;2.40;57.00
20856;DHT22;63058;49.424;8.420;2023-03-01T03:46:05;2.40;57.00
20856;DHT22;63058;49.424;8.420;2023-03-01T03:48:36;2.30;56.90
20856;DHT22;63058;49.424;8.420;2023-03-01T03:51:02;2.20;57.00
20856;DHT22;63058;49.424;8.420;2023-03-01T03:53:31;2.20;57.20
20856;DHT22;63058;49.424;8.420;2023-03-01T03:55:56;2.20;57.10
20856;DHT22;63058;49.424;8.420;2023-03-01T03:58:24;2.20;57.70
20856;DHT22;63058;49.424;8.420;2023-03-01T04:00:53;2.10;57.20
20856;DHT22;63058;49.424;8.420;2023-03-01T04:03:21;2.10;57.50
20856;DHT22;63058;49.424;8.420;2023-03-01T04:05:48;2.10;57.60
20856;DHT22;63058;49.424;8.420;2023-03-01T04:08:19;2.10;57.70
20856;DHT22;63058;49.424;8.420;2023-03-01T04:10:48;2.10;57.70
20856;DHT22;63058;49.424;8.420;2023-03-01T04:13:17;2.00;57.90
20856;DHT22;63058;49.424;8.420;2023-03-01T04:15:51;2.10;57.70
20856;DHT22;63058;49.424;8.420;2023-03-01T04:18:19;2.10;57.80
20856;DHT22;63058;49.424;8.420;2023-03-01T04:20:45;2.10;58.60
20856;DHT22;63058;49.424;8.420;2023-03-01T04:23:16;2.10;57.90
20856;DHT22;63058;49.424;8.420;2023-03-01T04:25:56;2.10;58.70
20856;DHT22;63058;49.424;8.420;2023-03-01T04:28:23;2.10;58.50
20856;DHT22;63058;49.424;8.420;2023-03-01T04:30:54;2.10;58.00
20856;DHT22;63058;49.424;8.420;2023-03-01T04:33:20;2.20;58.20
20856;DHT22;63058;49.424;8.420;2023-03-01T04:35:46;2.10;58.00
20856;DHT22;63058;49.424;8.420;2023-03-01T04:38:15;2.10;58.10
20856;DHT22;63058;49.424;8.420;2023-03-01T04:40:41;2.10;58.10
20856;DHT22;63058;49.424;8.420;2023-03-01T04:43:09;2.10;58.10
20856;DHT22;63058;49.424;8.420;2023-03-01T04:45:35;2.10;58.70
20856;DHT22;63058;49.424;8.420;2023-03-01T04:48:02;2.10;58.30
20856;DHT22;63058;49.424;8.420;2023-03-01T04:50:28;2.10;58.50
20856;DHT22;63058;49.424;8.420;2023-03-01T04:52:55;2.10;58.60
20856;DHT22;63058;49.424;8.420;2023-03-01T04:55:25;2.20;58.70
20856;DHT22;63058;49.424;8.420;2023-03-01T04:57:51;2.20;58.70
20856;DHT22;63058;49.424;8.420;2023-03-01T05:00:18;2.30;58.60
20856;DHT22;63058;49.424;8.420;2023-03-01T05:02:48;2.30;58.50
20856;DHT22;63058;49.424;8.420;2023-03-01T05:05:15;2.30;58.30
20856;DHT22;63058;49.424;8.420;2023-03-01T05:07:40;2.30;58.50
20856;DHT22;63058;49.424;8.420;2023-03-01T05:10:06;2.40;58.50
20856;DHT22;63058;49.424;8.420;2023-03-01T05:12:32;2.40;58.60
20856;DHT22;63058;49.424;8.420;2023-03-01T05:14:58;2.50;58.80
20856;DHT22;63058;49.424;8.420;2023-03-01T05:17:23;2.50;58.50
20856;DHT22;63058;49.424;8.420;2023-03-01T05:19:49;2.50;58.40
20856;DHT22;63058;49.424;8.420;2023-03-01T05:22:15;2.60;58.60
20856;DHT22;63058;49.424;8.420;2023-03-01T05:24:41;2.60;58.50
20856;DHT22;63058;49.424;8.420;2023-03-01T05:27:07;2.70;58.40
20856;DHT22;63058;49.424;8.420;2023-03-01T05:29:33;2.70;58.30
20856;DHT22;63058;49.424;8.420;2023-03-01T05:32:01;2.70;58.30
20856;DHT22;63058;49.424;8.420;2023-03-01T05:34:33;2.80;58.40
20856;DHT22;63058;49.424;8.420;2023-03-01T05:36:59;2.70;58.30
20856;DHT22;63058;49.424;8.420;2023-03-01T05:39:27;2.70;58.20
20856;DHT22;63058;49.424;8.420;2023-03-01T05:41:57;2.80;58.50
20856;DHT22;63058;49.424;8.420;2023-03-01T05:44:24;2.80;58.50
20856;DHT22;63058;49.424;8.420;2023-03-01T05:46:50;2.80;58.10
20856;DHT22;63058;49.424;8.420;2023-03-01T05:49:16;2.80;58.30
20856;DHT22;63058;49.424;8.420;2023-03-01T05:51:43;2.90;58.30
20856;DHT22;63058;49.424;8.420;2023-03-01T05:54:09;2.80;58.30
20856;DHT22;63058;49.424;8.420;2023-03-01T05:56:36;2.90;58.30
20856;DHT22;63058;49.424;8.420;2023-03-01T05:59:03;2.90;58.40
20856;DHT22;63058;49.424;8.420;2023-03-01T06:01:30;2.90;58.30
20856;DHT22;63058;49.424;8.420;2023-03-01T06:03:56;2.90;58.40
20856;DHT22;63058;49.424;8.420;2023-03-01T06:06:22;3.00;58.40
20856;DHT22;63058;49.424;8.420;2023-03-01T06:08:49;3.00;58.40
20856;DHT22;63058;49.424;8.420;2023-03-01T06:11:15;3.10;58.40
20856;DHT22;63058;49.424;8.420;2023-03-01T06:13:44;3.10;58.30
20856;DHT22;63058;49.424;8.420;2023-03-01T06:16:10;3.10;58.60
20856;DHT22;63058;49.424;8.420;2023-03-01T06:18:37;3.10;58.40
20856;DHT22;63058;49.424;8.420;2023-03-01T06:21:03;3.20;58.40
20856;DHT22;63058;49.424;8.420;2023-03-01T06:23:29;3.20;58.20
20856;DHT22;63058;49.424;8.420;2023-03-01T06:25:54;3.30;58.40
20856;DHT22;63058;49.424;8.420;2023-03-01T06:28:20;3.30;58.30
20856;DHT22;63058;49.424;8.420;2023-03-01T06:30:46;3.40;58.30
20856;DHT22;63058;49.424;8.420;2023-03-01T06:33:12;3.30;58.20
20856;DHT22;63058;49.424;8.420;2023-03-01T06:35:38;3.40;58.20
20856;DHT22;63058;49.424;8.420;2023-03-01T06:38:04;3.40;58.10
20856;DHT22;63058;49.424;8.420;2023-03-01T06:40:30;3.40;58.20
20856;DHT22;63058;49.424;8.420;2023-03-01T06:42:57;3.50;58.30
20856;DHT22;63058;49.424;8.420;2023-03-01T06:45:23;3.50;58.30
20856;DHT22;63058;49.424;8.420;2023-03-01T06:47:49;3.50;58.50
20856;DHT22;63058;49.424;8.420;2023-03-01T06:50:16;3.50;58.30
20856;DHT22;63058;49.424;8.420;2023-03-01T06:52:42;3.60;58.30
20856;DHT22;63058;49.424;8.420;2023-03-01T06:55:10;3.60;58.00
20856;DHT22;63058;49.424;8.420;2023-03-01T06:57:36;3.60;58.30
20856;DHT22;63058;49.424;8.420;2023-03-01T07:00:03;3.70;58.30
20856;DHT22;63058;49.424;8.420;2023-03-01T07:02:29;3.70;58.20
20856;DHT22;63058;49.424;8.420;2023-03-01T07:04:55;3.80;58.30
20856;DHT22;63058;49.424;8.420;2023-03-01T07:07:20;3.80;58.20
20856;DHT22;63058;49.424;8.420;2023-03-01T07:09:48;3.80;57.90
20856;DHT22;63058;49.424;8.420;2023-03-01T07:12:14;3.90;57.90
20856;DHT22;63058;49.424;8.420;2023-03-01T07:14:39;3.90;57.90
20856;DHT22;63058;49.424;8.420;2023-03-01T07:17:05;3.90;57.90
20856;DHT22;63058;49.424;8.420;2023-03-01T07:19:31;3.90;57.90
20856;DHT22;63058;49.424;8.420;2023-03-01T07:21:56;3.90;58.10
20856;DHT22;63058;49.424;8.420;2023-03-01T07:24:22;3.90;58.00
20856;DHT22;63058;49.424;8.420;2023-03-01T07:26:49;4.00;58.00
20856;DHT22;63058;49.424;8.420;2023-03-01T07:29:15;4.00;57.90
20856;DHT22;63058;49.424;8.420;2023-03-01T07:31:41;4.00;58.00
20856;DHT22;63058;49.424;8.420;2023-03-01T07:34:07;4.10;58.10
20856;DHT22;63058;49.424;8.420;2023-03-01T07:36:32;4.10;58.10
20856;DHT22;63058;49.424;8.420;2023-03-01T07:38:58;4.20;58.00
20856;DHT22;63058;49.424;8.420;2023-03-01T07:41:24;4.20;58.00
20856;DHT22;63058;49.424;8.420;2023-03-01T07:43:51;4.20;57.90
20856;DHT22;63058;49.424;8.420;2023-03-01T07:46:17;4.30;57.90
20856;DHT22;63058;49.424;8.420;2023-03-01T07:48:44;4.30;57.90
20856;DHT22;63058;49.424;8.420;2023-03-01T07:51:10;4.40;57.90
20856;DHT22;63058;49.424;8.420;2023-03-01T07:53:35;4.40;57.90
20856;DHT22;63058;49.424;8.420;2023-03-01T07:56:09;4.50;57.90
20856;DHT22;63058;49.424;8.420;2023-03-01T07:58:36;4.60;57.90
20856;DHT22;63058;49.424;8.420;2023-03-01T08:01:17;4.60;57.90
20856;DHT22;63058;49.424;8.420;2023-03-01T08:03:43;4.60;57.90
20856;DHT22;63058;49.424;8.420;2023-03-01T08:06:13;4.60;57.80
20856;DHT22;63058;49.424;8.420;2023-03-01T08:08:39;4.70;57.80
20856;DHT22;63058;49.424;8.420;2023-03-01T08:11:06;4.70;57.80
20856;DHT22;63058;49.424;8.420;2023-03-01T08:13:33;4.80;57.70
20856;DHT22;63058;49.424;8.420;2023-03-01T08:18:29;4.90;57.70
20856;DHT22;63058;49.424;8.420;2023-03-01T08:20:54;4.90;57.60
20856;DHT22;63058;49.424;8.420;2023-03-01T08:23:20;5.00;57.70
20856;DHT22;63058;49.424;8.420;2023-03-01T08:25:45;5.00;57.60
20856;DHT22;63058;49.424;8.420;2023-03-01T08:28:11;5.10;57.70
20856;DHT22;63058;49.424;8.420;2023-03-01T08:30:37;5.20;57.60
20856;DHT22;63058;49.424;8.420;2023-03-01T08:33:02;5.20;57.50
20856;DHT22;63058;49.424;8.420;2023-03-01T08:35:28;5.20;57.50
20856;DHT22;63058;49.424;8.420;2023-03-01T08:37:53;5.30;58.10
20856;DHT22;63058;49.424;8.420;2023-03-01T08:40:19;5.30;57.40
20856;DHT22;63058;49.424;8.420;2023-03-01T08:42:45;5.40;57.40
20856;DHT22;63058;49.424;8.420;2023-03-01T08:45:11;5.40;57.40
20856;DHT22;63058;49.424;8.420;2023-03-01T08:47:39;5.40;57.40
20856;DHT22;63058;49.424;8.420;2023-03-01T08:50:05;5.50;57.40
20856;DHT22;63058;49.424;8.420;2023-03-01T08:52:32;5.60;57.40
20856;DHT22;63058;49.424;8.420;2023-03-01T08:54:58;5.60;57.40
20856;DHT22;63058;49.424;8.420;2023-03-01T08:57:24;5.60;57.30
20856;DHT22;63058;49.424;8.420;2023-03-01T08:59:49;5.70;57.30
20856;DHT22;63058;49.424;8.420;2023-03-01T09:02:16;5.80;57.40
20856;DHT22;63058;49.424;8.420;2023-03-01T09:04:43;5.80;57.30
20856;DHT22;63058;49.424;8.420;2023-03-01T09:07:10;5.80;57.30
20856;DHT22;63058;49.424;8.420;2023-03-01T09:09:36;5.90;57.30
20856;DHT22;63058;49.424;8.420;2023-03-01T09:12:03;6.00;57.20
20856;DHT22;63058;49.424;8.420;2023-03-01T09:14:29;6.00;57.20
20856;DHT22;63058;49.424;8.420;2023-03-01T09:16:54;6.10;57.20
20856;DHT22;63058;49.424;8.420;2023-03-01T09:19:20;6.20;57.20
20856;DHT22;63058;49.424;8.420;2023-03-01T09:21:46;6.20;57.10
20856;DHT22;63058;49.424;8.420;2023-03-01T09:24:22;6.30;57.10
20856;DHT22;63058;49.424;8.420;2023-03-01T09:26:49;6.30;57.00
20856;DHT22;63058;49.424;8.420;2023-03-01T09:29:16;6.40;57.00
20856;DHT22;63058;49.424;8.420;2023-03-01T09:31:42;6.50;57.00
20856;DHT22;63058;49.424;8.420;2023-03-01T09:34:08;6.50;57.00
20856;DHT22;63058;49.424;8.420;2023-03-01T09:36:34;6.60;57.00
20856;DHT22;63058;49.424;8.420;2023-03-01T09:39:00;6.60;57.00
20856;DHT22;63058;49.424;8.420;2023-03-01T09:41:42;6.70;56.90
20856;DHT22;63058;49.424;8.420;2023-03-01T09:44:33;6.80;56.80
20856;DHT22;63058;49.424;8.420;2023-03-01T09:47:02;6.90;56.80
20856;DHT22;63058;49.424;8.420;2023-03-01T09:49:39;6.90;56.70
20856;DHT22;63058;49.424;8.420;2023-03-01T09:52:24;6.90;56.60
20856;DHT22;63058;49.424;8.420;2023-03-01T09:54:54;7.10;56.60
20856;DHT22;63058;49.424;8.420;2023-03-01T10:02:42;7.20;56.40
20856;DHT22;63058;49.424;8.420;2023-03-01T10:10:53;7.40;56.30
20856;DHT22;63058;49.424;8.420;2023-03-01T10:13:24;7.50;56.50
20856;DHT22;63058;49.424;8.420;2023-03-01T10:16:05;7.50;56.60
20856;DHT22;63058;49.424;8.420;2023-03-01T10:18:34;7.60;56.90
20856;DHT22;63058;49.424;8.420;2023-03-01T10:21:14;7.90;57.30
20856;DHT22;63058;49.424;8.420;2023-03-01T10:23:42;8.10;57.40
20856;DHT22;63058;49.424;8.420;2023-03-01T10:34:27;9.60;57.10
20856;DHT22;63058;49.424;8.420;2023-03-01T10:36:58;10.00;55.70
20856;DHT22;63058;49.424;8.420;2023-03-01T10:39:26;10.40;55.90
20856;DHT22;63058;49.424;8.420;2023-03-01T10:47:04;11.40;54.60
20856;DHT22;63058;49.424;8.420;2023-03-01T10:49:31;11.70;54.20
20856;DHT22;63058;49.424;8.420;2023-03-01T10:52:17;12.00;54.30
20856;DHT22;63058;49.424;8.420;2023-03-01T10:54:52;12.20;53.60
20856;DHT22;63058;49.424;8.420;2023-03-01T10:57:44;12.40;53.00
20856;DHT22;63058;49.424;8.420;2023-03-01T11:00:22;12.60;52.20
20856;DHT22;63058;49.424;8.420;2023-03-01T11:03:01;12.80;52.70
20856;DHT22;63058;49.424;8.420;2023-03-01T11:05:28;13.00;53.00
20856;DHT22;63058;49.424;8.420;2023-03-01T11:07:57;13.20;53.20
20856;DHT22;63058;49.424;8.420;2023-03-01T11:10:29;13.40;52.60
20856;DHT22;63058;49.424;8.420;2023-03-01T11:13:08;13.60;52.20
20856;DHT22;63058;49.424;8.420;2023-03-01T11:15:35;13.80;51.40
20856;DHT22;63058;49.424;8.420;2023-03-01T11:18:01;14.00;51.90
20856;DHT22;63058;49.424;8.420;2023-03-01T11:20:36;14.10;51.60
20856;DHT22;63058;49.424;8.420;2023-03-01T11:23:12;14.40;51.30
20856;DHT22;63058;49.424;8.420;2023-03-01T11:25:41;14.70;51.40
20856;DHT22;63058;49.424;8.420;2023-03-01T11:28:14;14.90;51.60
20856;DHT22;63058;49.424;8.420;2023-03-01T11:30:44;15.20;50.60
20856;DHT22;63058;49.424;8.420;2023-03-01T11:33:37;15.40;50.70
20856;DHT22;63058;49.424;8.420;2023-03-01T11:36:19;15.50;49.30
20856;DHT22;63058;49.424;8.420;2023-03-01T11:38:50;15.70;45.80
20856;DHT22;63058;49.424;8.420;2023-03-01T11:41:20;15.80;46.00
20856;DHT22;63058;49.424;8.420;2023-03-01T11:49:35;15.90;47.00
20856;DHT22;63058;49.424;8.420;2023-03-01T11:55:04;15.90;45.60
20856;DHT22;63058;49.424;8.420;2023-03-01T12:00:30;16.20;47.00
20856;DHT22;63058;49.424;8.420;2023-03-01T12:08:38;16.80;45.50
20856;DHT22;63058;49.424;8.420;2023-03-01T12:16:30;17.20;45.60
20856;DHT22;63058;49.424;8.420;2023-03-01T12:22:10;17.60;45.40
20856;DHT22;63058;49.424;8.420;2023-03-01T12:27:42;18.00;45.40
20856;DHT22;63058;49.424;8.420;2023-03-01T12:30:39;18.10;44.00
20856;DHT22;63058;49.424;8.420;2023-03-01T12:35:58;18.30;42.10
20856;DHT22;63058;49.424;8.420;2023-03-01T12:44:04;18.60;40.50
20856;DHT22;63058;49.424;8.420;2023-03-01T12:49:28;18.70;41.70
20856;DHT22;63058;49.424;8.420;2023-03-01T12:51:59;18.80;42.20
20856;DHT22;63058;49.424;8.420;2023-03-01T12:54:32;18.90;41.90
20856;DHT22;63058;49.424;8.420;2023-03-01T12:57:11;18.90;41.50
20856;DHT22;63058;49.424;8.420;2023-03-01T13:02:45;18.80;41.10
20856;DHT22;63058;49.424;8.420;2023-03-01T13:08:42;18.80;41.30
20856;DHT22;63058;49.424;8.420;2023-03-01T13:11:06;18.90;41.00
20856;DHT22;63058;49.424;8.420;2023-03-01T13:13:37;18.90;41.30
20856;DHT22;63058;49.424;8.420;2023-03-01T13:21:39;19.00;41.70
20856;DHT22;63058;49.424;8.420;2023-03-01T13:32:27;19.30;41.30
20856;DHT22;63058;49.424;8.420;2023-03-01T13:35:40;19.40;40.40
20856;DHT22;63058;49.424;8.420;2023-03-01T13:37:49;19.50;40.80
20856;DHT22;63058;49.424;8.420;2023-03-01T13:42:49;19.50;39.50
20856;DHT22;63058;49.424;8.420;2023-03-01T13:45:23;19.60;38.40
20856;DHT22;63058;49.424;8.420;2023-03-01T13:47:58;19.60;39.00
20856;DHT22;63058;49.424;8.420;2023-03-01T13:50:31;19.60;39.50
20856;DHT22;63058;49.424;8.420;2023-03-01T13:53:00;19.80;39.80
20856;DHT22;63058;49.424;8.420;2023-03-01T13:55:47;19.90;39.70
20856;DHT22;63058;49.424;8.420;2023-03-01T13:58:18;19.90;39.60
20856;DHT22;63058;49.424;8.420;2023-03-01T14:00:45;20.00;39.10
20856;DHT22;63058;49.424;8.420;2023-03-01T14:03:19;20.10;39.70
20856;DHT22;63058;49.424;8.420;2023-03-01T14:08:26;20.20;39.00
20856;DHT22;63058;49.424;8.420;2023-03-01T14:16:39;20.20;38.80
20856;DHT22;63058;49.424;8.420;2023-03-01T14:21:36;20.10;37.80
20856;DHT22;63058;49.424;8.420;2023-03-01T14:24:02;20.10;37.60
20856;DHT22;63058;49.424;8.420;2023-03-01T14:26:29;20.10;37.30
20856;DHT22;63058;49.424;8.420;2023-03-01T14:28:56;20.20;37.20
20856;DHT22;63058;49.424;8.420;2023-03-01T14:31:35;20.20;37.30
20856;DHT22;63058;49.424;8.420;2023-03-01T14:34:01;20.20;37.60
20856;DHT22;63058;49.424;8.420;2023-03-01T14:36:32;20.20;36.80
20856;DHT22;63058;49.424;8.420;2023-03-01T14:38:59;20.20;36.70
20856;DHT22;63058;49.424;8.420;2023-03-01T14:41:33;20.30;37.30
20856;DHT22;63058;49.424;8.420;2023-03-01T14:44:02;20.30;37.20
20856;DHT22;63058;49.424;8.420;2023-03-01T14:46:42;20.20;36.50
20856;DHT22;63058;49.424;8.420;2023-03-01T14:51:38;20.10;37.30
20856;DHT22;63058;49.424;8.420;2023-03-01T14:54:29;20.00;36.80
20856;DHT22;63058;49.424;8.420;2023-03-01T14:57:01;20.00;35.50
20856;DHT22;63058;49.424;8.420;2023-03-01T14:59:28;19.90;36.60
20856;DHT22;63058;49.424;8.420;2023-03-01T15:01:56;19.90;36.60
20856;DHT22;63058;49.424;8.420;2023-03-01T15:04:23;19.90;37.30
20856;DHT22;63058;49.424;8.420;2023-03-01T15:06:52;20.00;37.40
20856;DHT22;63058;49.424;8.420;2023-03-01T15:09:18;20.00;37.40
20856;DHT22;63058;49.424;8.420;2023-03-01T15:11:44;20.00;37.10
20856;DHT22;63058;49.424;8.420;2023-03-01T15:14:45;20.00;37.20
20856;DHT22;63058;49.424;8.420;2023-03-01T15:17:23;19.90;37.10
20856;DHT22;63058;49.424;8.420;2023-03-01T15:19:52;19.90;37.60
20856;DHT22;63058;49.424;8.420;2023-03-01T15:22:26;20.00;38.10
20856;DHT22;63058;49.424;8.420;2023-03-01T15:24:52;20.00;37.60
20856;DHT22;63058;49.424;8.420;2023-03-01T15:27:22;20.00;37.60
20856;DHT22;63058;49.424;8.420;2023-03-01T15:30:00;20.00;37.40
20856;DHT22;63058;49.424;8.420;2023-03-01T15:32:33;19.80;37.00
20856;DHT22;63058;49.424;8.420;2023-03-01T15:36:02;19.70;37.20
20856;DHT22;63058;49.424;8.420;2023-03-01T15:40:55;19.50;37.20
20856;DHT22;63058;49.424;8.420;2023-03-01T15:43:50;19.40;37.80
20856;DHT22;63058;49.424;8.420;2023-03-01T15:46:37;19.30;37.10
20856;DHT22;63058;49.424;8.420;2023-03-01T15:52:02;19.20;37.30
20856;DHT22;63058;49.424;8.420;2023-03-01T15:54:28;19.00;37.10
20856;DHT22;63058;49.424;8.420;2023-03-01T15:56:54;19.00;37.70
20856;DHT22;63058;49.424;8.420;2023-03-01T15:59:20;18.90;37.80
20856;DHT22;63058;49.424;8.420;2023-03-01T16:01:48;18.80;37.80
20856;DHT22;63058;49.424;8.420;2023-03-01T16:04:16;18.60;37.60
20856;DHT22;63058;49.424;8.420;2023-03-01T16:06:53;18.50;37.70
20856;DHT22;63058;49.424;8.420;2023-03-01T16:09:23;18.40;37.80
20856;DHT22;63058;49.424;8.420;2023-03-01T16:11:50;18.30;38.10
20856;DHT22;63058;49.424;8.420;2023-03-01T16:14:16;18.20;38.10
20856;DHT22;63058;49.424;8.420;2023-03-01T16:16:43;18.10;37.80
20856;DHT22;63058;49.424;8.420;2023-03-01T16:19:09;17.90;37.60
20856;DHT22;63058;49.424;8.420;2023-03-01T16:21:36;17.60;37.30
20856;DHT22;63058;49.424;8.420;2023-03-01T16:24:02;17.20;37.00
20856;DHT22;63058;49.424;8.420;2023-03-01T16:26:27;16.70;37.00
20856;DHT22;63058;49.424;8.420;2023-03-01T16:28:57;16.30;37.20
20856;DHT22;63058;49.424;8.420;2023-03-01T16:31:23;15.80;37.50
20856;DHT22;63058;49.424;8.420;2023-03-01T16:33:53;15.40;37.60
20856;DHT22;63058;49.424;8.420;2023-03-01T16:36:20;14.90;37.90
20856;DHT22;63058;49.424;8.420;2023-03-01T16:38:49;14.50;38.20
20856;DHT22;63058;49.424;8.420;2023-03-01T16:41:16;14.10;38.60
20856;DHT22;63058;49.424;8.420;2023-03-01T16:43:43;13.70;39.00
20856;DHT22;63058;49.424;8.420;2023-03-01T16:46:15;13.50;39.10
20856;DHT22;63058;49.424;8.420;2023-03-01T16:48:41;13.20;39.40
20856;DHT22;63058;49.424;8.420;2023-03-01T16:51:07;12.90;39.60
20856;DHT22;63058;49.424;8.420;2023-03-01T16:53:34;12.70;39.90
20856;DHT22;63058;49.424;8.420;2023-03-01T16:56:02;12.50;40.00
20856;DHT22;63058;49.424;8.420;2023-03-01T16:58:29;12.30;40.30
20856;DHT22;63058;49.424;8.420;2023-03-01T17:00:55;12.10;40.40
20856;DHT22;63058;49.424;8.420;2023-03-01T17:03:24;12.00;40.80
20856;DHT22;63058;49.424;8.420;2023-03-01T17:05:50;11.90;41.00
20856;DHT22;63058;49.424;8.420;2023-03-01T17:08:16;11.70;41.20
20856;DHT22;63058;49.424;8.420;2023-03-01T17:10:42;11.60;41.40
20856;DHT22;63058;49.424;8.420;2023-03-01T17:13:08;11.50;41.50
20856;DHT22;63058;49.424;8.420;2023-03-01T17:15:37;11.40;41.60
20856;DHT22;63058;49.424;8.420;2023-03-01T17:18:03;11.20;41.60
20856;DHT22;63058;49.424;8.420;2023-03-01T17:20:28;11.10;41.60
20856;DHT22;63058;49.424;8.420;2023-03-01T17:22:54;11.00;41.80
20856;DHT22;63058;49.424;8.420;2023-03-01T17:25:20;11.00;41.90
20856;DHT22;63058;49.424;8.420;2023-03-01T17:27:46;10.80;42.10
20856;DHT22;63058;49.424;8.420;2023-03-01T17:30:13;10.80;42.30
20856;DHT22;63058;49.424;8.420;2023-03-01T17:32:39;10.70;42.40
20856;DHT22;63058;49.424;8.420;2023-03-01T17:35:06;10.60;42.60
20856;DHT22;63058;49.424;8.420;2023-03-01T17:37:32;10.60;42.70
20856;DHT22;63058;49.424;8.420;2023-03-01T17:39:58;10.50;42.70
20856;DHT22;63058;49.424;8.420;2023-03-01T17:42:23;10.40;42.90
20856;DHT22;63058;49.424;8.420;2023-03-01T17:44:49;10.30;42.70
20856;DHT22;63058;49.424;8.420;2023-03-01T17:47:15;10.20;43.50
20856;DHT22;63058;49.424;8.420;2023-03-01T17:49:40;10.10;43.50
20856;DHT22;63058;49.424;8.420;2023-03-01T17:52:06;10.10;43.00